Time;durP1;ratioP1;P1;durP2;ratioP2;P2;SDS_P1;SDS_P2;PMS_P1;PMS_P2;Temp;Humidity;BMP_temperature;BMP_pressure;BME280_temperature;BME280_humidity;BME280_pressure;Samples;Min_cycle;Max_cycle;Signal;HPM_P1;HPM_P2
2023/06/06 02:44:50;;;;;;;1999.90;999.90;;;;;;;;;;5611398;23;20250;-73
2023/06/06 02:47:35;;;;;;;1999.90;999.90;;;;;;;;;;4903978;29;20686;-73
2023/06/06 02:50:20;;;;;;;1999.90;999.90;;;;;;;;;;4905795;29;20722;-73
2023/06/06 02:53:06;;;;;;;1999.90;999.90;;;;;;;;;;4907495;29;20287;-73
2023/06/06 02:55:50;;;;;;;1999.90;999.90;;;;;;;;;;4897882;29;20234;-73
2023/06/06 02:58:35;;;;;;;1999.90;999.90;;;;;;;;;;4895260;29;20726;-73
2023/06/06 03:01:22;;;;;;;1999.90;999.90;;;;;;;;;;4895923;29;20498;-73
2023/06/06 03:04:07;;;;;;;1999.90;999.90;;;;;;;;;;4904890;29;20238;-73
2023/06/06 03:06:53;;;;;;;1999.90;999.90;;;;;;;;;;4896783;29;20733;-73
2023/06/06 03:09:38;;;;;;;1999.90;999.90;;;;;;;;;;4896202;29;20229;-72
2023/06/06 03:12:23;;;;;;;1999.90;999.90;;;;;;;;;;4890623;29;20213;-73
2023/06/06 03:15:09;;;;;;;1999.90;999.90;;;;;;;;;;4897185;29;20596;-73
2023/06/06 03:17:56;;;;;;;1999.90;999.90;;;;;;;;;;4896657;29;20222;-73
2023/06/06 03:20:41;;;;;;;1999.90;999.90;;;;;;;;;;4896986;29;20303;-73
2023/06/06 03:23:26;;;;;;;1999.90;999.90;;;;;;;;;;4897272;29;20286;-73
2023/06/06 03:26:11;;;;;;;1999.90;999.90;;;;;;;;;;4896566;29;20236;-73
2023/06/06 03:28:57;;;;;;;1999.90;999.90;;;;;;;;;;4896720;29;20253;-73
2023/06/06 03:31:42;;;;;;;1999.90;999.90;;;;;;;;;;4896483;29;20225;-73
2023/06/06 03:34:28;;;;;;;1999.90;999.90;;;;;;;;;;4895496;29;20483;-73
2023/06/06 03:37:13;;;;;;;1999.90;999.90;;;;;;;;;;4904696;29;20213;-72
2023/06/06 03:39:58;;;;;;;1999.90;999.90;;;;;;;;;;4896599;29;20225;-72
2023/06/06 03:42:43;;;;;;;1999.90;999.90;;;;;;;;;;4904415;29;20273;-72
2023/06/06 03:45:28;;;;;;;1999.90;999.90;;;;;;;;;;4900180;29;20305;-72
2023/06/06 03:48:13;;;;;;;1999.90;999.90;;;;;;;;;;4896178;29;20409;-72
2023/06/06 03:51:00;;;;;;;1999.90;999.90;;;;;;;;;;4904478;29;20350;-72
2023/06/06 03:53:45;;;;;;;1999.90;999.90;;;;;;;;;;4904561;29;20221;-72
2023/06/06 03:56:30;;;;;;;1999.90;999.90;;;;;;;;;;4904461;29;20947;-72
2023/06/06 03:59:15;;;;;;;1999.90;999.90;;;;;;;;;;4895851;29;20214;-72
2023/06/06 04:01:59;;;;;;;1999.90;999.90;;;;;;;;;;4897603;29;20595;-72
2023/06/06 04:04:45;;;;;;;1999.90;999.90;;;;;;;;;;4900906;29;20236;-72
2023/06/06 04:07:31;;;;;;;1999.90;999.90;;;;;;;;;;4900005;29;20317;-72
2023/06/06 04:10:18;;;;;;;1999.90;999.90;;;;;;;;;;4900011;29;20229;-72
2023/06/06 04:13:03;;;;;;;1999.90;999.90;;;;;;;;;;4901964;29;20339;-72
2023/06/06 04:15:49;;;;;;;1999.90;999.90;;;;;;;;;;4903578;29;20241;-72
2023/06/06 04:18:34;;;;;;;1999.90;999.90;;;;;;;;;;4902729;29;20342;-73
2023/06/06 04:21:19;;;;;;;1999.90;999.90;;;;;;;;;;4892749;29;20235;-72
2023/06/06 04:24:06;;;;;;;1999.90;999.90;;;;;;;;;;4906136;29;20418;-73
2023/06/06 04:26:50;;;;;;;1999.90;999.90;;;;;;;;;;4893705;29;20242;-71
2023/06/06 04:29:36;;;;;;;1999.90;999.90;;;;;;;;;;4899594;29;20221;-70
2023/06/06 04:32:21;;;;;;;1999.90;999.90;;;;;;;;;;4897230;29;20324;-73
2023/06/06 04:35:06;;;;;;;1999.90;999.90;;;;;;;;;;4897159;29;20286;-73
2023/06/06 04:37:53;;;;;;;1999.90;999.90;;;;;;;;;;4888324;29;20439;-72
2023/06/06 04:40:40;;;;;;;1999.90;999.90;;;;;;;;;;4898890;29;20294;-71
2023/06/06 04:43:27;;;;;;;1999.90;999.90;;;;;;;;;;4905484;29;20212;-73
2023/06/06 04:46:12;;;;;;;1999.90;999.90;;;;;;;;;;4916950;29;20395;-72
2023/06/06 04:48:59;;;;;;;1999.90;999.90;;;;;;;;;;4904637;29;20232;-73
2023/06/06 04:51:44;;;;;;;1999.90;999.90;;;;;;;;;;4917817;29;20210;-73
2023/06/06 04:54:30;;;;;;;1999.90;999.90;;;;;;;;;;4918170;29;20234;-73
2023/06/06 04:57:16;;;;;;;1999.90;999.90;;;;;;;;;;4918310;29;20262;-73
2023/06/06 05:00:03;;;;;;;1999.90;999.90;;;;;;;;;;4895970;29;20222;-73
2023/06/06 05:02:50;;;;;;;1999.90;999.90;;;;;;;;;;4894333;29;20959;-73
2023/06/06 05:05:35;;;;;;;1999.90;999.90;;;;;;;;;;4886463;29;20725;-70
2023/06/06 05:08:20;;;;;;;1999.90;999.90;;;;;;;;;;4891325;29;20230;-73
2023/06/06 05:11:05;;;;;;;1999.90;999.90;;;;;;;;;;4898087;29;20318;-73
2023/06/06 05:13:51;;;;;;;1999.90;999.90;;;;;;;;;;4897476;29;20436;-73
2023/06/06 05:16:36;;;;;;;1999.90;999.90;;;;;;;;;;4889469;29;20257;-73
2023/06/06 05:19:22;;;;;;;1999.90;999.90;;;;;;;;;;4900990;29;20202;-72
2023/06/06 05:22:06;;;;;;;1999.90;999.90;;;;;;;;;;4886574;29;20230;-73
2023/06/06 05:24:51;;;;;;;1999.90;999.90;;;;;;;;;;4880543;29;20876;-73
2023/06/06 05:27:36;;;;;;;1999.90;999.90;;;;;;;;;;4880247;29;20235;-73
2023/06/06 05:30:22;;;;;;;1999.90;999.90;;;;;;;;;;4892805;29;20489;-73
2023/06/06 05:33:08;;;;;;;1999.90;999.90;;;;;;;;;;4883041;29;20313;-73
2023/06/06 05:35:53;;;;;;;1999.90;999.90;;;;;;;;;;4880477;29;20300;-71
2023/06/06 05:38:38;;;;;;;1999.90;999.90;;;;;;;;;;4881311;29;20206;-70
2023/06/06 05:41:23;;;;;;;1999.90;999.90;;;;;;;;;;4897649;29;20279;-73
2023/06/06 05:44:08;;;;;;;1999.90;999.90;;;;;;;;;;4895655;29;20710;-73
2023/06/06 05:46:55;;;;;;;1999.90;999.90;;;;;;;;;;4897421;29;20305;-73
2023/06/06 05:49:40;;;;;;;1999.90;999.90;;;;;;;;;;4883740;29;20218;-72
2023/06/06 05:52:24;;;;;;;1999.90;999.90;;;;;;;;;;4879768;29;20215;-73
2023/06/06 05:55:26;;;;;;;1999.90;999.90;;;;;;;;;;4879677;29;20788;-73
2023/06/06 05:58:11;;;;;;;1999.90;999.90;;;;;;;;;;4879908;29;20795;-73
2023/06/06 06:00:57;;;;;;;1999.90;999.90;;;;;;;;;;4879543;29;20268;-73
2023/06/06 06:03:44;;;;;;;1999.90;999.90;;;;;;;;;;4885943;29;20840;-73
2023/06/06 06:06:31;;;;;;;1999.90;999.90;;;;;;;;;;4879904;29;20211;-73
2023/06/06 06:09:17;;;;;;;1999.90;999.90;;;;;;;;;;4881437;29;20214;-73
2023/06/06 06:12:02;;;;;;;1999.90;999.90;;;;;;;;;;4879535;29;20216;-73
2023/06/06 06:14:47;;;;;;;1999.90;999.90;;;;;;;;;;4894553;29;20332;-73
2023/06/06 06:17:31;;;;;;;1999.90;999.90;;;;;;;;;;4897401;29;20207;-71
2023/06/06 06:20:19;;;;;;;1999.90;999.90;;;;;;;;;;4882126;29;20934;-73
2023/06/06 06:23:04;;;;;;;1999.90;999.90;;;;;;;;;;4895833;29;20211;-73
2023/06/06 06:25:49;;;;;;;1999.90;999.90;;;;;;;;;;4895910;29;20727;-74
2023/06/06 06:28:34;;;;;;;1999.90;999.90;;;;;;;;;;4900306;29;20233;-74
2023/06/06 06:31:19;;;;;;;1999.90;999.90;;;;;;;;;;4914631;29;20705;-73
2023/06/06 06:34:04;;;;;;;1999.90;999.90;;;;;;;;;;4890711;29;20241;-72
2023/06/06 06:36:50;;;;;;;1999.90;999.90;;;;;;;;;;4896572;29;20330;-73
2023/06/06 06:39:35;;;;;;;1999.90;999.90;;;;;;;;;;4897394;29;20223;-75
2023/06/06 06:42:20;;;;;;;1999.90;999.90;;;;;;;;;;4900604;29;20605;-75
2023/06/06 06:45:05;;;;;;;1999.90;999.90;;;;;;;;;;4913560;29;20322;-74
2023/06/06 06:47:50;;;;;;;1999.90;999.90;;;;;;;;;;4897380;29;20227;-76
2023/06/06 06:50:35;;;;;;;1999.90;999.90;;;;;;;;;;4915999;29;20420;-75
2023/06/06 06:53:25;;;;;;;1999.90;999.90;;;;;;;;;;4901418;29;20210;-75
2023/06/06 06:56:10;;;;;;;1999.90;999.90;;;;;;;;;;4900492;29;20233;-75
2023/06/06 06:58:57;;;;;;;1999.90;999.90;;;;;;;;;;4893207;29;20287;-75
2023/06/06 07:01:49;;;;;;;1999.90;999.90;;;;;;;;;;4898579;29;20703;-75
2023/06/06 07:04:34;;;;;;;1999.90;999.90;;;;;;;;;;4910615;29;20226;-75
2023/06/06 07:07:18;;;;;;;1999.90;999.90;;;;;;;;;;4895131;29;20978;-75
2023/06/06 07:10:05;;;;;;;1999.90;999.90;;;;;;;;;;4900108;29;20241;-75
2023/06/06 07:12:51;;;;;;;1999.90;999.90;;;;;;;;;;4900350;29;20594;-76
2023/06/06 07:15:37;;;;;;;1999.90;999.90;;;;;;;;;;4904100;29;20311;-75
2023/06/06 07:18:24;;;;;;;1999.90;999.90;;;;;;;;;;4896363;29;20722;-75
2023/06/06 07:21:08;;;;;;;1999.90;999.90;;;;;;;;;;4900764;29;20691;-74
2023/06/06 07:23:53;;;;;;;1999.90;999.90;;;;;;;;;;4904645;29;20594;-76
2023/06/06 07:26:42;;;;;;;1999.90;999.90;;;;;;;;;;4895172;29;20225;-75
2023/06/06 07:29:29;;;;;;;1999.90;999.90;;;;;;;;;;4903982;29;20270;-75
2023/06/06 07:32:13;;;;;;;1999.90;999.90;;;;;;;;;;4909059;29;20592;-75
2023/06/06 07:34:58;;;;;;;1999.90;999.90;;;;;;;;;;4915632;29;20309;-75
2023/06/06 07:37:44;;;;;;;1999.90;999.90;;;;;;;;;;4901664;29;20693;-76
2023/06/06 07:40:28;;;;;;;1999.90;999.90;;;;;;;;;;4902702;29;20412;-75
2023/06/06 07:43:15;;;;;;;1999.90;999.90;;;;;;;;;;4906955;29;20223;-75
2023/06/06 07:46:00;;;;;;;1999.90;999.90;;;;;;;;;;4912862;29;20239;-76
2023/06/06 07:48:45;;;;;;;1999.90;999.90;;;;;;;;;;4909428;29;20235;-75
2023/06/06 07:51:30;;;;;;;1999.90;999.90;;;;;;;;;;4883034;29;20810;-75
2023/06/06 07:54:15;;;;;;;1999.90;999.90;;;;;;;;;;4915253;29;20332;-74
2023/06/06 07:57:01;;;;;;;1999.90;999.90;;;;;;;;;;4904275;29;20517;-75
2023/06/06 07:59:47;;;;;;;1999.90;999.90;;;;;;;;;;4915403;29;20220;-75
2023/06/06 08:02:32;;;;;;;1999.90;999.90;;;;;;;;;;4903857;29;20211;-75
2023/06/06 08:05:18;;;;;;;1999.90;999.90;;;;;;;;;;4878000;29;20227;-74
2023/06/06 08:08:05;;;;;;;1999.90;999.90;;;;;;;;;;4912144;29;20239;-75
2023/06/06 08:10:51;;;;;;;1999.90;999.90;;;;;;;;;;4905348;29;20211;-76
2023/06/06 08:13:35;;;;;;;1999.90;999.90;;;;;;;;;;4900657;29;20320;-76
2023/06/06 08:16:22;;;;;;;1999.90;999.90;;;;;;;;;;4892934;29;20637;-76
2023/06/06 08:19:07;;;;;;;1999.90;999.90;;;;;;;;;;4900391;29;20309;-74
2023/06/06 08:21:51;;;;;;;1999.90;999.90;;;;;;;;;;4906059;29;20288;-74
2023/06/06 08:24:37;;;;;;;1999.90;999.90;;;;;;;;;;4911884;29;20399;-75
2023/06/06 08:27:22;;;;;;;1999.90;999.90;;;;;;;;;;4908545;29;20230;-75
2023/06/06 08:30:08;;;;;;;1999.90;999.90;;;;;;;;;;4908010;29;20444;-75
2023/06/06 08:32:54;;;;;;;1999.90;999.90;;;;;;;;;;4911130;29;20282;-74
2023/06/06 08:35:39;;;;;;;1999.90;999.90;;;;;;;;;;4908009;29;20603;-74
2023/06/06 08:38:24;;;;;;;1999.90;999.90;;;;;;;;;;4912393;29;20206;-73
2023/06/06 08:41:10;;;;;;;1999.90;999.90;;;;;;;;;;4908916;29;20294;-74
2023/06/06 08:43:57;;;;;;;1999.90;999.90;;;;;;;;;;4912902;29;20251;-73
2023/06/06 08:46:43;;;;;;;1999.90;999.90;;;;;;;;;;4906475;29;20262;-72
2023/06/06 08:49:31;;;;;;;1999.90;999.90;;;;;;;;;;4898425;29;20438;-74
2023/06/06 08:52:16;;;;;;;1999.90;999.90;;;;;;;;;;4900397;29;20270;-74
2023/06/06 08:55:01;;;;;;;1999.90;999.90;;;;;;;;;;4888186;29;20255;-73
2023/06/06 08:57:48;;;;;;;1999.90;999.90;;;;;;;;;;4886092;29;20292;-74
2023/06/06 09:00:33;;;;;;;1999.90;999.90;;;;;;;;;;4891278;29;20251;-73
2023/06/06 09:03:18;;;;;;;1999.90;999.90;;;;;;;;;;4880521;29;20263;-75
2023/06/06 09:06:06;;;;;;;1999.90;999.90;;;;;;;;;;4905530;29;20633;-74
2023/06/06 09:08:54;;;;;;;1999.90;999.90;;;;;;;;;;4918064;29;20289;-73
2023/06/06 09:11:39;;;;;;;1999.90;999.90;;;;;;;;;;4912486;29;20224;-75
2023/06/06 09:14:24;;;;;;;1999.90;999.90;;;;;;;;;;4880935;29;20829;-72
2023/06/06 09:17:15;;;;;;;1999.90;999.90;;;;;;;;;;4899319;29;20217;-72
2023/06/06 09:20:01;;;;;;;1999.90;999.90;;;;;;;;;;4917976;29;20267;-72
2023/06/06 09:22:48;;;;;;;1999.90;999.90;;;;;;;;;;4906300;29;20318;-73
2023/06/06 09:25:33;;;;;;;1999.90;999.90;;;;;;;;;;4904148;29;20276;-72
2023/06/06 09:28:18;;;;;;;1999.90;999.90;;;;;;;;;;4906527;29;20229;-72
2023/06/06 09:31:18;;;;;;;1999.90;999.90;;;;;;;;;;4918050;29;20249;-73
2023/06/06 09:34:03;;;;;;;1999.90;999.90;;;;;;;;;;4914501;29;20206;-73
2023/06/06 09:36:48;;;;;;;1999.90;999.90;;;;;;;;;;4909665;29;20499;-70
2023/06/06 09:39:34;;;;;;;1999.90;999.90;;;;;;;;;;4899944;29;20351;-72
2023/06/06 09:42:19;;;;;;;1999.90;999.90;;;;;;;;;;4894991;29;20213;-72
2023/06/06 09:45:11;;;;;;;1999.90;999.90;;;;;;;;;;4901233;29;20337;-72
2023/06/06 09:47:59;;;;;;;1999.90;999.90;;;;;;;;;;4900813;29;20223;-72
2023/06/06 09:50:44;;;;;;;1999.90;999.90;;;;;;;;;;4904417;29;20234;-71
2023/06/06 09:53:31;;;;;;;1999.90;999.90;;;;;;;;;;4905434;29;20348;-71
2023/06/06 09:56:19;;;;;;;1999.90;999.90;;;;;;;;;;4911411;29;20223;-71
2023/06/06 09:59:05;;;;;;;1999.90;999.90;;;;;;;;;;4915433;29;20208;-72
2023/06/06 10:01:51;;;;;;;1999.90;999.90;;;;;;;;;;4905848;29;20312;-71
2023/06/06 10:04:36;;;;;;;1999.90;999.90;;;;;;;;;;4902455;29;20282;-72
2023/06/06 10:07:21;;;;;;;1999.90;999.90;;;;;;;;;;4895505;29;20215;-72
2023/06/06 10:10:07;;;;;;;1999.90;999.90;;;;;;;;;;4916757;29;20211;-73
2023/06/06 10:12:55;;;;;;;1999.90;999.90;;;;;;;;;;4906049;29;20217;-73
2023/06/06 10:15:41;;;;;;;1999.90;999.90;;;;;;;;;;4910157;29;20234;-71
2023/06/06 10:18:26;;;;;;;1999.90;999.90;;;;;;;;;;4903983;29;20195;-70
2023/06/06 10:21:12;;;;;;;1999.90;999.90;;;;;;;;;;4903834;29;20223;-74
2023/06/06 10:23:57;;;;;;;1999.90;999.90;;;;;;;;;;4899525;29;20529;-72
2023/06/06 10:26:45;;;;;;;1999.90;999.90;;;;;;;;;;4895830;29;20767;-74
2023/06/06 10:29:35;;;;;;;1999.90;999.90;;;;;;;;;;4887539;29;20239;-72
2023/06/06 10:32:23;;;;;;;1999.90;999.90;;;;;;;;;;4895788;29;20223;-73
2023/06/06 10:35:10;;;;;;;1999.90;999.90;;;;;;;;;;4896180;29;20333;-73
2023/06/06 10:38:02;;;;;;;1999.90;999.90;;;;;;;;;;4911094;29;20211;-72
2023/06/06 10:40:50;;;;;;;1999.90;999.90;;;;;;;;;;4908911;29;20276;-71
2023/06/06 10:43:51;;;;;;;1999.90;999.90;;;;;;;;;;4909399;29;20215;-71
2023/06/06 10:46:38;;;;;;;1999.90;999.90;;;;;;;;;;4893967;29;20685;-71
2023/06/06 10:49:22;;;;;;;1999.90;999.90;;;;;;;;;;4906436;29;20302;-71
2023/06/06 10:52:07;;;;;;;1999.90;999.90;;;;;;;;;;4907192;29;20580;-72
2023/06/06 10:54:53;;;;;;;1999.90;999.90;;;;;;;;;;4907166;29;20237;-72
2023/06/06 10:57:41;;;;;;;1999.90;999.90;;;;;;;;;;4910976;29;20465;-73
2023/06/06 11:00:27;;;;;;;1999.90;999.90;;;;;;;;;;4907659;29;20704;-71
2023/06/06 11:03:14;;;;;;;1999.90;999.90;;;;;;;;;;4915692;29;20308;-71
2023/06/06 11:06:09;;;;;;;1999.90;999.90;;;;;;;;;;4903284;29;20719;-72
2023/06/06 11:08:58;;;;;;;1999.90;999.90;;;;;;;;;;4907014;29;20326;-73
2023/06/06 11:11:43;;;;;;;1999.90;999.90;;;;;;;;;;4908138;29;20213;-73
2023/06/06 11:14:28;;;;;;;1999.90;999.90;;;;;;;;;;4901648;29;20310;-72
2023/06/06 11:17:14;;;;;;;1999.90;999.90;;;;;;;;;;4915559;29;20277;-73
2023/06/06 11:20:03;;;;;;;1999.90;999.90;;;;;;;;;;4906434;29;20220;-72
2023/06/06 11:22:53;;;;;;;1999.90;999.90;;;;;;;;;;4908260;29;20220;-73
2023/06/06 11:25:38;;;;;;;1999.90;999.90;;;;;;;;;;4895897;29;20548;-71
2023/06/06 11:28:25;;;;;;;1999.90;999.90;;;;;;;;;;4892345;29;20795;-71
2023/06/06 11:31:11;;;;;;;1999.90;999.90;;;;;;;;;;4905953;29;20224;-71
2023/06/06 11:34:04;;;;;;;1999.90;999.90;;;;;;;;;;4891163;29;20721;-75
2023/06/06 11:36:52;;;;;;;1999.90;999.90;;;;;;;;;;4887097;29;20283;-71
2023/06/06 11:39:37;;;;;;;1999.90;999.90;;;;;;;;;;4900071;29;20218;-71
2023/06/06 11:42:22;;;;;;;1999.90;999.90;;;;;;;;;;4905211;29;20268;-72
2023/06/06 11:45:12;;;;;;;1999.90;999.90;;;;;;;;;;4900756;29;20609;-72
2023/06/06 11:47:57;;;;;;;1999.90;999.90;;;;;;;;;;4899883;29;20230;-72
2023/06/06 11:50:42;;;;;;;1999.90;999.90;;;;;;;;;;4905969;29;20453;-70
2023/06/06 11:53:33;;;;;;;1999.90;999.90;;;;;;;;;;4900812;29;21466;-72
2023/06/06 11:56:18;;;;;;;1999.90;999.90;;;;;;;;;;4905731;29;20296;-72
2023/06/06 11:59:03;;;;;;;1999.90;999.90;;;;;;;;;;4910010;29;20292;-72
2023/06/06 12:01:50;;;;;;;1999.90;999.90;;;;;;;;;;4907853;29;20212;-72
2023/06/06 12:04:35;;;;;;;1999.90;999.90;;;;;;;;;;4908149;29;20236;-74
2023/06/06 12:07:21;;;;;;;1999.90;999.90;;;;;;;;;;4912500;29;20586;-72
2023/06/06 12:10:08;;;;;;;1999.90;999.90;;;;;;;;;;4896079;29;20240;-71
2023/06/06 12:12:53;;;;;;;1999.90;999.90;;;;;;;;;;4889808;29;20469;-73
2023/06/06 12:15:44;;;;;;;1999.90;999.90;;;;;;;;;;4895392;29;20477;-74
2023/06/06 12:18:29;;;;;;;1999.90;999.90;;;;;;;;;;4895547;29;20704;-72
2023/06/06 12:21:16;;;;;;;1999.90;999.90;;;;;;;;;;4889698;29;20214;-73
2023/06/06 12:24:15;;;;;;;1999.90;999.90;;;;;;;;;;4894088;29;20303;-73
2023/06/06 12:27:03;;;;;;;1999.90;999.90;;;;;;;;;;4903897;29;20343;-74
2023/06/06 12:29:50;;;;;;;1999.90;999.90;;;;;;;;;;4906655;29;20312;-74
2023/06/06 12:32:36;;;;;;;1999.90;999.90;;;;;;;;;;4900357;29;20229;-73
2023/06/06 12:35:21;;;;;;;1999.90;999.90;;;;;;;;;;4892780;29;20252;-73
2023/06/06 12:38:06;;;;;;;1999.90;999.90;;;;;;;;;;4899693;29;20221;-73
2023/06/06 12:40:55;;;;;;;1999.90;999.90;;;;;;;;;;4907475;29;20218;-73
2023/06/06 12:43:41;;;;;;;1999.90;999.90;;;;;;;;;;4906974;29;20272;-72
2023/06/06 12:46:26;;;;;;;1999.90;999.90;;;;;;;;;;4901119;29;20920;-73
2023/06/06 12:49:11;;;;;;;1999.90;999.90;;;;;;;;;;4910525;29;20242;-74
2023/06/06 12:51:56;;;;;;;1999.90;999.90;;;;;;;;;;4915201;29;20242;-73
2023/06/06 12:54:41;;;;;;;1999.90;999.90;;;;;;;;;;4915264;29;20274;-73
2023/06/06 12:57:26;;;;;;;1999.90;999.90;;;;;;;;;;4912809;29;20706;-72
2023/06/06 13:00:13;;;;;;;1999.90;999.90;;;;;;;;;;4915234;29;20333;-73
2023/06/06 13:02:59;;;;;;;1999.90;999.90;;;;;;;;;;4916250;29;20579;-72
2023/06/06 13:05:44;;;;;;;1999.90;999.90;;;;;;;;;;4905782;29;20715;-73
2023/06/06 13:08:29;;;;;;;1999.90;999.90;;;;;;;;;;4901327;29;20212;-74
2023/06/06 13:11:14;;;;;;;1999.90;999.90;;;;;;;;;;4904517;29;20432;-73
2023/06/06 13:14:01;;;;;;;1999.90;999.90;;;;;;;;;;4903239;29;20270;-72
2023/06/06 13:16:49;;;;;;;1999.90;999.90;;;;;;;;;;4903751;29;20354;-72
2023/06/06 13:19:33;;;;;;;1999.90;999.90;;;;;;;;;;4906196;29;20214;-74
2023/06/06 13:22:19;;;;;;;1999.90;999.90;;;;;;;;;;4912673;29;20206;-72
2023/06/06 13:25:04;;;;;;;1999.90;999.90;;;;;;;;;;4908685;29;20246;-71
2023/06/06 13:27:50;;;;;;;1999.90;999.90;;;;;;;;;;4911494;29;20210;-73
2023/06/06 13:30:35;;;;;;;1999.90;999.90;;;;;;;;;;4910509;29;20594;-73
2023/06/06 13:33:21;;;;;;;1999.90;999.90;;;;;;;;;;4915261;29;20212;-72
2023/06/06 13:36:06;;;;;;;1999.90;999.90;;;;;;;;;;4915011;29;20253;-71
2023/06/06 13:38:51;;;;;;;1999.90;999.90;;;;;;;;;;4915402;29;20302;-71
2023/06/06 13:41:36;;;;;;;1999.90;999.90;;;;;;;;;;4915386;29;20727;-71
2023/06/06 13:44:22;;;;;;;1999.90;999.90;;;;;;;;;;4915367;29;20373;-73
2023/06/06 13:47:07;;;;;;;1999.90;999.90;;;;;;;;;;4911010;29;20202;-72
2023/06/06 13:49:55;;;;;;;1999.90;999.90;;;;;;;;;;4914998;29;20254;-71
2023/06/06 13:52:42;;;;;;;1999.90;999.90;;;;;;;;;;4915030;29;20222;-71
2023/06/06 13:55:27;;;;;;;1999.90;999.90;;;;;;;;;;4914951;29;20314;-72
2023/06/06 13:58:17;;;;;;;1999.90;999.90;;;;;;;;;;4915183;29;20586;-72
2023/06/06 14:01:03;;;;;;;1999.90;999.90;;;;;;;;;;4915138;29;20218;-74
2023/06/06 14:03:49;;;;;;;1999.90;999.90;;;;;;;;;;4910095;29;20222;-71
2023/06/06 14:06:36;;;;;;;1999.90;999.90;;;;;;;;;;4914405;29;20417;-73
2023/06/06 14:09:21;;;;;;;1999.90;999.90;;;;;;;;;;4914925;29;20222;-71
2023/06/06 14:12:06;;;;;;;1999.90;999.90;;;;;;;;;;4908088;29;20213;-72
2023/06/06 14:14:51;;;;;;;1999.90;999.90;;;;;;;;;;4909660;29;20225;-73
2023/06/06 14:17:36;;;;;;;1999.90;999.90;;;;;;;;;;4914958;29;20213;-72
2023/06/06 14:20:21;;;;;;;1999.90;999.90;;;;;;;;;;4914472;29;20242;-72
2023/06/06 14:23:08;;;;;;;1999.90;999.90;;;;;;;;;;4915115;29;20213;-72
2023/06/06 14:25:53;;;;;;;1999.90;999.90;;;;;;;;;;4912585;29;20318;-73
2023/06/06 14:28:40;;;;;;;1999.90;999.90;;;;;;;;;;4910847;29;20240;-75
2023/06/06 14:31:25;;;;;;;1999.90;999.90;;;;;;;;;;4915208;29;20206;-73
2023/06/06 14:34:10;;;;;;;1999.90;999.90;;;;;;;;;;4897215;29;20348;-74
2023/06/06 14:36:55;;;;;;;1999.90;999.90;;;;;;;;;;4913775;29;20342;-73
2023/06/06 14:39:41;;;;;;;1999.90;999.90;;;;;;;;;;4916660;29;20209;-73
2023/06/06 14:42:26;;;;;;;1999.90;999.90;;;;;;;;;;4916612;29;20213;-73
2023/06/06 14:45:11;;;;;;;1999.90;999.90;;;;;;;;;;4916506;29;20599;-73
2023/06/06 14:47:56;;;;;;;1999.90;999.90;;;;;;;;;;4916143;29;20997;-73
2023/06/06 14:50:41;;;;;;;1999.90;999.90;;;;;;;;;;4911356;29;20242;-74
2023/06/06 14:53:27;;;;;;;1999.90;999.90;;;;;;;;;;4909862;29;20290;-74
2023/06/06 14:56:13;;;;;;;1999.90;999.90;;;;;;;;;;4906398;29;20214;-74
2023/06/06 14:58:58;;;;;;;1999.90;999.90;;;;;;;;;;4895828;29;20210;-73
2023/06/06 15:01:43;;;;;;;1999.90;999.90;;;;;;;;;;4910496;29;20213;-73
2023/06/06 15:04:33;;;;;;;1999.90;999.90;;;;;;;;;;4881939;29;20234;-74
2023/06/06 15:07:18;;;;;;;1999.90;999.90;;;;;;;;;;4898157;29;20324;-73
2023/06/06 15:10:04;;;;;;;1999.90;999.90;;;;;;;;;;4895668;29;20340;-73
2023/06/06 15:12:50;;;;;;;1999.90;999.90;;;;;;;;;;4895767;29;20312;-73
2023/06/06 15:15:35;;;;;;;1999.90;999.90;;;;;;;;;;4910887;29;20273;-72
2023/06/06 15:18:20;;;;;;;1999.90;999.90;;;;;;;;;;4916014;29;20205;-73
2023/06/06 15:21:05;;;;;;;1999.90;999.90;;;;;;;;;;4909672;29;20441;-74
2023/06/06 15:23:50;;;;;;;1999.90;999.90;;;;;;;;;;4913491;29;20723;-75
2023/06/06 15:26:36;;;;;;;1999.90;999.90;;;;;;;;;;4903370;29;20239;-73
2023/06/06 15:29:22;;;;;;;1999.90;999.90;;;;;;;;;;4890184;29;20234;-74
2023/06/06 15:32:07;;;;;;;1999.90;999.90;;;;;;;;;;4913817;29;20714;-72
2023/06/06 15:34:53;;;;;;;1999.90;999.90;;;;;;;;;;4907794;29;20231;-70
2023/06/06 15:37:37;;;;;;;1999.90;999.90;;;;;;;;;;4898840;29;20459;-71
2023/06/06 15:40:22;;;;;;;1999.90;999.90;;;;;;;;;;4878252;29;20247;-70
2023/06/06 15:43:07;;;;;;;1999.90;999.90;;;;;;;;;;4878470;29;20259;-73
2023/06/06 15:45:54;;;;;;;1999.90;999.90;;;;;;;;;;4878512;29;20272;-71
2023/06/06 15:48:39;;;;;;;1999.90;999.90;;;;;;;;;;4903418;29;20278;-71
2023/06/06 15:51:24;;;;;;;1999.90;999.90;;;;;;;;;;4879332;29;20343;-71
2023/06/06 15:54:09;;;;;;;1999.90;999.90;;;;;;;;;;4879163;29;20364;-69
2023/06/06 15:56:54;;;;;;;1999.90;999.90;;;;;;;;;;4893596;29;20347;-70
2023/06/06 15:59:39;;;;;;;1999.90;999.90;;;;;;;;;;4898944;29;20283;-72
2023/06/06 16:02:26;;;;;;;1999.90;999.90;;;;;;;;;;4914876;29;20259;-70
2023/06/06 16:05:11;;;;;;;1999.90;999.90;;;;;;;;;;4910801;29;20719;-70
2023/06/06 16:07:56;;;;;;;1999.90;999.90;;;;;;;;;;4905636;29;20222;-71
2023/06/06 16:10:41;;;;;;;1999.90;999.90;;;;;;;;;;4905089;29;20522;-72
2023/06/06 16:13:26;;;;;;;1999.90;999.90;;;;;;;;;;4907670;29;20297;-70
2023/06/06 16:16:11;;;;;;;1999.90;999.90;;;;;;;;;;4898548;29;20245;-74
2023/06/06 16:18:57;;;;;;;1999.90;999.90;;;;;;;;;;4916438;29;20571;-74
2023/06/06 16:21:42;;;;;;;1999.90;999.90;;;;;;;;;;4906302;29;20718;-71
2023/06/06 16:24:27;;;;;;;1999.90;999.90;;;;;;;;;;4899824;29;20354;-73
2023/06/06 16:27:12;;;;;;;1999.90;999.90;;;;;;;;;;4906157;29;20277;-73
2023/06/06 16:29:56;;;;;;;1999.90;999.90;;;;;;;;;;4905262;29;20230;-72
2023/06/06 16:32:41;;;;;;;1999.90;999.90;;;;;;;;;;4895562;29;20246;-74
2023/06/06 16:35:28;;;;;;;1999.90;999.90;;;;;;;;;;4893376;29;20238;-74
2023/06/06 16:38:13;;;;;;;1999.90;999.90;;;;;;;;;;4911411;29;20214;-71
2023/06/06 16:41:01;;;;;;;1999.90;999.90;;;;;;;;;;4914148;29;20303;-74
2023/06/06 16:43:46;;;;;;;1999.90;999.90;;;;;;;;;;4906433;29;20213;-68
2023/06/06 16:46:32;;;;;;;1999.90;999.90;;;;;;;;;;4907002;29;20213;-70
2023/06/06 16:49:17;;;;;;;1999.90;999.90;;;;;;;;;;4918302;29;20326;-70
2023/06/06 16:52:03;;;;;;;1999.90;999.90;;;;;;;;;;4918421;29;20296;-70
2023/06/06 16:54:48;;;;;;;1999.90;999.90;;;;;;;;;;4918528;29;20338;-70
2023/06/06 16:57:33;;;;;;;1999.90;999.90;;;;;;;;;;4888576;29;20323;-72
2023/06/06 17:00:18;;;;;;;1999.90;999.90;;;;;;;;;;4903182;29;20206;-72
2023/06/06 17:03:04;;;;;;;1999.90;999.90;;;;;;;;;;4918758;29;20302;-70
2023/06/06 17:05:49;;;;;;;1999.90;999.90;;;;;;;;;;4918295;29;20342;-71
2023/06/06 17:08:35;;;;;;;1999.90;999.90;;;;;;;;;;4907466;29;20206;-71
2023/06/06 17:11:21;;;;;;;1999.90;999.90;;;;;;;;;;4902838;29;20281;-70
2023/06/06 17:14:06;;;;;;;1999.90;999.90;;;;;;;;;;4896448;29;20261;-71
2023/06/06 17:16:52;;;;;;;1999.90;999.90;;;;;;;;;;4893735;29;20442;-72
2023/06/06 17:19:36;;;;;;;1999.90;999.90;;;;;;;;;;4898851;29;20330;-71
2023/06/06 17:22:21;;;;;;;1999.90;999.90;;;;;;;;;;4903442;29;20222;-72
2023/06/06 17:25:08;;;;;;;1999.90;999.90;;;;;;;;;;4917952;29;20240;-73
2023/06/06 17:27:54;;;;;;;1999.90;999.90;;;;;;;;;;4917901;29;20206;-73
2023/06/06 17:30:40;;;;;;;1999.90;999.90;;;;;;;;;;4894227;29;20222;-68
2023/06/06 17:33:24;;;;;;;1999.90;999.90;;;;;;;;;;4910634;29;20289;-70
2023/06/06 17:36:09;;;;;;;1999.90;999.90;;;;;;;;;;4913502;29;20301;-72
2023/06/06 17:38:54;;;;;;;1999.90;999.90;;;;;;;;;;4910426;29;20214;-70
2023/06/06 17:41:41;;;;;;;1999.90;999.90;;;;;;;;;;4911143;29;20225;-69
2023/06/06 17:44:26;;;;;;;1999.90;999.90;;;;;;;;;;4903437;29;20342;-73
2023/06/06 17:47:11;;;;;;;1999.90;999.90;;;;;;;;;;4911000;29;20224;-70
2023/06/06 17:49:59;;;;;;;1999.90;999.90;;;;;;;;;;4910539;29;20119;-70
2023/06/06 17:52:44;;;;;;;1999.90;999.90;;;;;;;;;;4915471;29;20229;-69
2023/06/06 17:55:29;;;;;;;1999.90;999.90;;;;;;;;;;4913298;29;20308;-70
2023/06/06 17:58:15;;;;;;;1999.90;999.90;;;;;;;;;;4907468;29;20263;-69
2023/06/06 18:01:01;;;;;;;1999.90;999.90;;;;;;;;;;4910438;29;20338;-68
2023/06/06 18:03:47;;;;;;;1999.90;999.90;;;;;;;;;;4908240;29;20217;-70
2023/06/06 18:06:32;;;;;;;1999.90;999.90;;;;;;;;;;4901657;29;20333;-69
2023/06/06 18:09:17;;;;;;;1999.90;999.90;;;;;;;;;;4902733;29;20499;-70